createdAt,value
2023-04-15T00:03:53.397Z,16.22
2023-04-15T00:09:01.528Z,16.22
2023-04-15T00:14:08.939Z,16.23
2023-04-15T00:19:16.327Z,16.23
2023-04-15T00:24:23.676Z,16.21
2023-04-15T00:29:31.376Z,16.22
2023-04-15T00:34:38.431Z,16.21
2023-04-15T00:39:45.769Z,16.21
2023-04-15T00:44:52.948Z,16.21
2023-04-15T00:50:00.816Z,16.20
2023-04-15T00:55:09.320Z,16.21
2023-04-15T01:00:17.052Z,16.20
2023-04-15T01:05:25.438Z,16.21
2023-04-15T01:10:33.323Z,16.20
2023-04-15T01:15:41.057Z,16.19
2023-04-15T01:20:48.387Z,16.20
2023-04-15T01:25:55.778Z,16.19
2023-04-15T01:31:18.984Z,16.19
2023-04-15T01:36:26.134Z,16.21
2023-04-15T01:41:33.441Z,16.21
2023-04-15T01:46:41.122Z,16.21
2023-04-15T01:51:48.509Z,16.20
2023-04-15T01:56:55.803Z,16.20
2023-04-15T02:02:03.375Z,16.20
2023-04-15T02:07:10.543Z,16.20
2023-04-15T02:12:17.854Z,16.20
2023-04-15T02:17:25.281Z,16.21
2023-04-15T02:22:32.806Z,16.19
2023-04-15T02:27:40.326Z,16.21
2023-04-15T02:32:48.318Z,16.20
2023-04-15T02:37:55.719Z,16.20
2023-04-15T02:43:02.905Z,16.19
2023-04-15T02:48:10.165Z,16.19
2023-04-15T02:53:17.852Z,16.20
2023-04-15T02:58:25.351Z,16.20
2023-04-15T03:03:33.020Z,16.20
2023-04-15T03:08:40.359Z,16.20
2023-04-15T03:13:47.704Z,16.20
2023-04-15T03:18:55.090Z,16.20
2023-04-15T03:24:02.751Z,16.18
2023-04-15T03:29:09.955Z,16.19
2023-04-15T03:34:17.120Z,16.19
2023-04-15T03:39:24.462Z,16.19
2023-04-15T03:44:31.782Z,16.18
2023-04-15T03:49:38.742Z,16.18
2023-04-15T03:54:46.475Z,16.18
2023-04-15T03:59:53.787Z,16.18
2023-04-15T04:05:01.037Z,16.17
2023-04-15T04:10:08.898Z,16.18
2023-04-15T04:15:16.380Z,16.17
2023-04-15T04:20:23.914Z,16.18
2023-04-15T04:25:31.276Z,16.18
2023-04-15T04:30:38.982Z,16.17
2023-04-15T04:35:46.325Z,16.17
2023-04-15T04:40:53.795Z,16.18
2023-04-15T04:46:01.240Z,16.17
2023-04-15T04:51:08.752Z,16.18
2023-04-15T04:56:16.414Z,16.17
2023-04-15T05:01:23.621Z,16.18
2023-04-15T05:06:31.534Z,16.17
2023-04-15T05:11:38.557Z,16.17
2023-04-15T05:16:46.106Z,16.18
2023-04-15T05:21:53.608Z,16.18
2023-04-15T05:27:02.343Z,16.18
2023-04-15T05:32:09.872Z,16.18
2023-04-15T05:37:17.430Z,16.18
2023-04-15T05:42:24.710Z,16.18
2023-04-15T05:47:32.199Z,16.18
2023-04-15T05:52:39.489Z,16.18
2023-04-15T05:57:47.182Z,16.17
2023-04-15T06:02:54.350Z,16.18
2023-04-15T06:08:02.043Z,16.19
2023-04-15T06:13:09.430Z,16.21
2023-04-15T06:18:16.664Z,16.22
2023-04-15T06:23:24.538Z,16.22
2023-04-15T06:28:33.101Z,16.23
2023-04-15T06:33:40.358Z,16.24
2023-04-15T06:38:47.447Z,16.25
2023-04-15T06:43:54.509Z,16.27
2023-04-15T06:49:02.229Z,16.37
2023-04-15T06:54:09.498Z,16.36
2023-04-15T06:59:16.673Z,16.36
2023-04-15T07:04:23.806Z,16.40
2023-04-15T07:09:31.128Z,16.49
2023-04-15T07:14:38.389Z,16.51
2023-04-15T07:19:45.695Z,16.52
2023-04-15T07:24:52.958Z,16.51
2023-04-15T07:30:00.289Z,16.55
2023-04-15T07:35:08.205Z,16.60
2023-04-15T07:40:16.551Z,16.58
2023-04-15T07:45:23.971Z,16.60
2023-04-15T07:50:31.191Z,16.60
2023-04-15T07:55:38.980Z,16.65
2023-04-15T08:00:46.639Z,16.67
2023-04-15T08:05:54.914Z,16.69
2023-04-15T08:11:02.365Z,16.70
2023-04-15T08:16:21.358Z,16.74
2023-04-15T08:21:29.038Z,16.78
2023-04-15T08:26:36.110Z,16.83
2023-04-15T08:31:43.384Z,16.87
2023-04-15T08:36:50.860Z,16.84
2023-04-15T08:42:03.147Z,16.83
2023-04-15T08:47:11.236Z,16.78
2023-04-15T08:52:18.875Z,16.76
2023-04-15T08:57:26.811Z,16.78
2023-04-15T09:02:34.372Z,16.83
2023-04-15T09:07:42.046Z,16.81
2023-04-15T09:12:49.474Z,16.76
2023-04-15T09:17:56.998Z,16.73
2023-04-15T09:23:14.178Z,16.73
2023-04-15T09:28:28.153Z,16.71
2023-04-15T09:33:35.409Z,16.70
2023-04-15T09:38:56.872Z,16.69
2023-04-15T09:44:03.915Z,16.69
2023-04-15T09:49:12.063Z,16.69
2023-04-15T09:54:24.411Z,16.68
2023-04-15T09:59:31.810Z,16.69
2023-04-15T10:04:42.003Z,16.73
2023-04-15T10:09:50.291Z,16.76
2023-04-15T10:14:58.869Z,16.73
2023-04-15T10:20:07.518Z,16.73
2023-04-15T10:25:16.133Z,16.73
2023-04-15T10:30:24.198Z,16.72
2023-04-15T10:35:32.581Z,16.70
2023-04-15T10:40:40.732Z,16.72
2023-04-15T10:45:49.062Z,16.70
2023-04-15T10:51:00.311Z,16.70
2023-04-15T10:56:08.341Z,16.71
2023-04-15T11:01:15.489Z,16.70
2023-04-15T11:06:22.569Z,16.70
2023-04-15T11:11:46.849Z,16.69
2023-04-15T11:16:54.531Z,16.68
2023-04-15T11:22:08.718Z,16.69
2023-04-15T11:27:24.293Z,16.69
2023-04-15T11:32:31.553Z,16.70
2023-04-15T11:37:38.359Z,16.69
2023-04-15T11:42:49.475Z,16.68
2023-04-15T11:47:57.311Z,16.69
2023-04-15T11:53:07.634Z,16.69
2023-04-15T11:58:17.218Z,16.69
2023-04-15T12:03:26.568Z,16.69
2023-04-15T12:08:47.069Z,16.69
2023-04-15T12:13:55.919Z,16.70
2023-04-15T12:19:06.267Z,16.70
2023-04-15T12:24:14.557Z,16.71
2023-04-15T12:29:22.559Z,16.69
2023-04-15T12:34:30.323Z,16.70
2023-04-15T12:39:39.853Z,16.71
2023-04-15T12:44:47.244Z,16.70
2023-04-15T12:49:54.562Z,16.70
2023-04-15T12:55:02.231Z,16.72
2023-04-15T13:00:10.762Z,16.73
2023-04-15T13:05:18.092Z,16.73
2023-04-15T13:10:25.383Z,16.74
2023-04-15T13:15:32.578Z,16.75
2023-04-15T13:26:04.522Z,16.79
2023-04-15T13:31:11.719Z,16.79
2023-04-15T13:36:19.073Z,16.81
2023-04-15T13:41:26.426Z,16.79
2023-04-15T13:46:34.829Z,16.81
2023-04-15T13:51:42.800Z,16.80
2023-04-15T13:56:50.481Z,16.81
2023-04-15T14:01:58.136Z,16.82
2023-04-15T14:07:05.488Z,16.83
2023-04-15T14:12:12.759Z,16.84
2023-04-15T14:17:19.925Z,16.84
2023-04-15T14:22:27.158Z,16.84
2023-04-15T14:27:34.636Z,16.84
2023-04-15T14:32:41.744Z,16.84
2023-04-15T14:37:49.111Z,16.84
2023-04-15T14:42:56.347Z,16.86
2023-04-15T14:48:03.813Z,16.87
2023-04-15T14:53:11.113Z,16.87
2023-04-15T14:58:18.499Z,16.88
2023-04-15T15:03:25.929Z,16.88
2023-04-15T15:08:33.290Z,16.88
2023-04-15T15:13:40.611Z,16.87
2023-04-15T15:18:48.203Z,16.89
2023-04-15T15:23:55.526Z,16.90
2023-04-15T15:29:02.926Z,16.90
2023-04-15T15:34:10.558Z,16.90
2023-04-15T15:39:17.965Z,16.91
2023-04-15T15:44:25.320Z,16.91
2023-04-15T15:49:32.798Z,16.90
2023-04-15T15:54:39.854Z,16.90
2023-04-15T15:59:47.079Z,16.90
2023-04-15T16:04:54.525Z,16.91
2023-04-15T16:10:01.705Z,16.92
2023-04-15T16:15:10.100Z,16.92
2023-04-15T16:20:17.208Z,16.92
2023-04-15T16:25:24.695Z,16.92
2023-04-15T16:30:32.179Z,16.91
2023-04-15T16:35:39.338Z,16.91
2023-04-15T16:40:46.839Z,16.90
2023-04-15T16:45:53.976Z,16.91
2023-04-15T16:51:01.177Z,16.92
2023-04-15T16:56:09.079Z,16.92
2023-04-15T17:01:16.538Z,16.91
2023-04-15T17:06:24.049Z,16.90
2023-04-15T17:11:31.689Z,16.89
2023-04-15T17:16:38.875Z,16.90
2023-04-15T17:21:46.177Z,16.90
2023-04-15T17:26:53.624Z,16.89
2023-04-15T17:32:00.785Z,16.89
2023-04-15T17:37:08.327Z,16.90
2023-04-15T17:42:16.359Z,16.91
2023-04-15T17:47:23.750Z,16.91
2023-04-15T17:52:31.142Z,16.91
2023-04-15T17:57:38.449Z,16.93
2023-04-15T18:02:45.821Z,16.95
2023-04-15T18:07:54.368Z,16.97
2023-04-15T18:13:03.758Z,16.99
2023-04-15T18:18:11.403Z,17.01
2023-04-15T18:23:18.629Z,17.00
2023-04-15T18:28:26.004Z,17.02
2023-04-15T18:33:33.661Z,17.05
2023-04-15T18:38:40.934Z,17.06
2023-04-15T18:43:48.361Z,17.08
2023-04-15T18:48:58.661Z,17.09
2023-04-15T18:54:06.194Z,17.11
2023-04-15T18:59:28.841Z,17.13
2023-04-15T19:04:38.983Z,17.19
2023-04-15T19:09:46.891Z,17.21
2023-04-15T19:14:54.422Z,17.23
2023-04-15T19:20:01.939Z,17.28
2023-04-15T19:25:09.589Z,17.35
2023-04-15T19:30:17.129Z,17.44
2023-04-15T19:35:24.607Z,17.54
2023-04-15T19:40:32.017Z,17.60
2023-04-15T19:45:39.198Z,17.65
2023-04-15T19:50:46.472Z,17.69
2023-04-15T19:55:53.679Z,17.70
2023-04-15T20:01:01.747Z,17.71
2023-04-15T20:06:08.992Z,17.77
2023-04-15T20:11:16.411Z,17.79
2023-04-15T20:16:23.731Z,17.81
2023-04-15T20:21:31.567Z,17.84
2023-04-15T20:26:38.557Z,17.87
2023-04-15T20:31:46.103Z,17.92
2023-04-15T20:36:53.358Z,17.93
2023-04-15T20:42:00.536Z,17.95
2023-04-15T20:47:08.158Z,17.97
2023-04-15T20:52:15.793Z,18.00
2023-04-15T20:57:25.001Z,18.03
2023-04-15T21:02:32.391Z,18.05
2023-04-15T21:07:39.793Z,18.08
2023-04-15T21:12:47.253Z,18.08
2023-04-15T21:17:54.312Z,18.10
2023-04-15T21:23:01.693Z,18.12
2023-04-15T21:28:09.153Z,18.13
2023-04-15T21:33:16.232Z,18.17
2023-04-15T21:38:23.571Z,18.19
2023-04-15T21:43:31.221Z,18.21
2023-04-15T21:48:39.295Z,18.21
2023-04-15T21:53:46.452Z,18.23
2023-04-15T21:58:57.264Z,18.25
2023-04-15T22:04:04.493Z,18.24
2023-04-15T22:09:13.956Z,18.26
2023-04-15T22:14:21.836Z,18.26
2023-04-15T22:19:28.698Z,18.26
2023-04-15T22:24:40.962Z,18.27
2023-04-15T22:29:48.831Z,18.26
2023-04-15T22:34:56.224Z,18.26
2023-04-15T22:40:03.937Z,18.28
2023-04-15T22:45:11.771Z,18.27
2023-04-15T22:50:18.855Z,18.26
2023-04-15T22:55:26.218Z,18.29
2023-04-15T23:00:33.581Z,18.30
2023-04-15T23:05:41.650Z,18.28
2023-04-15T23:10:58.420Z,18.29
2023-04-15T23:16:09.098Z,18.31
2023-04-15T23:21:17.414Z,18.32
2023-04-15T23:26:25.488Z,18.31
2023-04-15T23:31:33.130Z,18.29
2023-04-15T23:36:40.818Z,18.30
2023-04-15T23:41:47.917Z,18.30
2023-04-15T23:46:55.631Z,18.30
2023-04-15T23:52:02.966Z,18.31
2023-04-15T23:57:10.275Z,18.31
